sensor_id;sensor_type;location;lat;lon;timestamp;pressure;altitude;pressure_sealevel;temperature;humidity
32875;BME280;40468;42.128;24.750;2023-10-31T00:01:12;99877.91;;;14.77;59.38
32875;BME280;40468;42.128;24.750;2023-10-31T00:02:43;99874.53;;;14.75;59.46
32875;BME280;40468;42.128;24.750;2023-10-31T00:04:15;99883.53;;;14.71;59.38
32875;BME280;40468;42.128;24.750;2023-10-31T00:05:47;99887.09;;;14.70;59.59
32875;BME280;40468;42.128;24.750;2023-10-31T00:07:17;99883.81;;;14.67;59.54
32875;BME280;40468;42.128;24.750;2023-10-31T00:08:49;99875.09;;;14.66;59.45
32875;BME280;40468;42.128;24.750;2023-10-31T00:10:19;99875.09;;;14.66;59.30
32875;BME280;40468;42.128;24.750;2023-10-31T00:11:51;99871.66;;;14.66;59.34
32875;BME280;40468;42.128;24.750;2023-10-31T00:13:21;99868.19;;;14.65;59.41
32875;BME280;40468;42.128;24.750;2023-10-31T00:14:53;99877.00;;;14.64;59.51
32875;BME280;40468;42.128;24.750;2023-10-31T00:16:24;99870.06;;;14.63;59.48
32875;BME280;40468;42.128;24.750;2023-10-31T00:17:55;99874.56;;;14.61;59.47
32875;BME280;40468;42.128;24.750;2023-10-31T00:19:27;99880.72;;;14.60;59.40
32875;BME280;40468;42.128;24.750;2023-10-31T00:20:59;99876.44;;;14.59;59.66
32875;BME280;40468;42.128;24.750;2023-10-31T00:22:29;99876.69;;;14.54;59.63
32875;BME280;40468;42.128;24.750;2023-10-31T00:24:01;99872.41;;;14.53;59.64
32875;BME280;40468;42.128;24.750;2023-10-31T00:25:33;99874.19;;;14.53;59.76
32875;BME280;40468;42.128;24.750;2023-10-31T00:27:04;99870.75;;;14.51;59.82
32875;BME280;40468;42.128;24.750;2023-10-31T00:28:35;99865.53;;;14.51;59.81
32875;BME280;40468;42.128;24.750;2023-10-31T00:30:07;99863.94;;;14.48;59.86
32875;BME280;40468;42.128;24.750;2023-10-31T00:31:37;99868.31;;;14.48;59.55
32875;BME280;40468;42.128;24.750;2023-10-31T00:33:11;99867.50;;;14.47;59.64
32875;BME280;40468;42.128;24.750;2023-10-31T00:34:43;99863.16;;;14.46;59.55
32875;BME280;40468;42.128;24.750;2023-10-31T00:36:14;99857.19;;;14.44;59.69
32875;BME280;40468;42.128;24.750;2023-10-31T00:37:45;99860.84;;;14.42;60.00
32875;BME280;40468;42.128;24.750;2023-10-31T00:39:16;99866.16;;;14.40;59.80
32875;BME280;40468;42.128;24.750;2023-10-31T00:40:48;99861.03;;;14.39;60.06
32875;BME280;40468;42.128;24.750;2023-10-31T00:42:18;99862.81;;;14.38;59.90
32875;BME280;40468;42.128;24.750;2023-10-31T00:43:50;99867.22;;;14.38;59.84
32875;BME280;40468;42.128;24.750;2023-10-31T00:45:20;99852.41;;;14.37;59.76
32875;BME280;40468;42.128;24.750;2023-10-31T00:46:52;99859.44;;;14.36;59.86
32875;BME280;40468;42.128;24.750;2023-10-31T00:48:22;99855.97;;;14.36;59.96
32875;BME280;40468;42.128;24.750;2023-10-31T00:49:55;99856.91;;;14.34;59.98
32875;BME280;40468;42.128;24.750;2023-10-31T00:51:26;99852.50;;;14.35;59.75
32875;BME280;40468;42.128;24.750;2023-10-31T00:52:57;99849.97;;;14.33;59.94
32875;BME280;40468;42.128;24.750;2023-10-31T00:54:29;99857.94;;;14.32;59.91
32875;BME280;40468;42.128;24.750;2023-10-31T00:56:00;99853.72;;;14.29;60.10
32875;BME280;40468;42.128;24.750;2023-10-31T00:57:31;99850.25;;;14.29;59.89
32875;BME280;40468;42.128;24.750;2023-10-31T00:59:03;99847.72;;;14.27;59.94
32875;BME280;40468;42.128;24.750;2023-10-31T01:00:33;99850.34;;;14.27;59.76
32875;BME280;40468;42.128;24.750;2023-10-31T01:02:07;99849.50;;;14.27;59.90
32875;BME280;40468;42.128;24.750;2023-10-31T01:03:37;99852.19;;;14.25;59.90
32875;BME280;40468;42.128;24.750;2023-10-31T01:05:11;99853.06;;;14.26;59.89
32875;BME280;40468;42.128;24.750;2023-10-31T01:06:42;99797.25;;;13.95;59.74
32875;BME280;40468;42.128;24.750;2023-10-31T01:08:14;99849.69;;;14.24;59.80
32875;BME280;40468;42.128;24.750;2023-10-31T01:09:45;99846.31;;;14.22;59.84
32875;BME280;40468;42.128;24.750;2023-10-31T01:11:16;99852.50;;;14.21;59.94
32875;BME280;40468;42.128;24.750;2023-10-31T01:12:47;99843.88;;;14.19;59.98
32875;BME280;40468;42.128;24.750;2023-10-31T01:14:19;99846.66;;;14.16;60.14
32875;BME280;40468;42.128;24.750;2023-10-31T01:15:49;99847.69;;;14.13;60.20
32875;BME280;40468;42.128;24.750;2023-10-31T01:17:21;99849.47;;;14.13;60.34
32875;BME280;40468;42.128;24.750;2023-10-31T01:18:51;99852.19;;;14.11;60.46
32875;BME280;40468;42.128;24.750;2023-10-31T01:20:24;99847.88;;;14.10;60.47
32875;BME280;40468;42.128;24.750;2023-10-31T01:21:56;99844.53;;;14.08;60.59
32875;BME280;40468;42.128;24.750;2023-10-31T01:23:27;99847.16;;;14.08;60.57
32875;BME280;40468;42.128;24.750;2023-10-31T01:24:58;99859.47;;;14.06;60.49
32875;BME280;40468;42.128;24.750;2023-10-31T01:26:29;99849.91;;;14.05;60.30
32875;BME280;40468;42.128;24.750;2023-10-31T01:28:00;99849.91;;;14.05;60.67
32875;BME280;40468;42.128;24.750;2023-10-31T01:29:31;99848.16;;;14.05;60.77
32875;BME280;40468;42.128;24.750;2023-10-31T01:31:02;99845.63;;;14.04;60.75
32875;BME280;40468;42.128;24.750;2023-10-31T01:32:34;99840.56;;;14.01;60.80
32875;BME280;40468;42.128;24.750;2023-10-31T01:34:04;99844.19;;;13.98;60.80
32875;BME280;40468;42.128;24.750;2023-10-31T01:35:37;99840.84;;;13.96;60.86
32875;BME280;40468;42.128;24.750;2023-10-31T01:37:08;99841.88;;;13.94;60.81
32875;BME280;40468;42.128;24.750;2023-10-31T01:38:39;99839.25;;;13.94;60.77
32875;BME280;40468;42.128;24.750;2023-10-31T01:40:11;99839.31;;;13.92;60.86
32875;BME280;40468;42.128;24.750;2023-10-31T01:41:43;99842.78;;;13.93;60.80
32875;BME280;40468;42.128;24.750;2023-10-31T01:43:28;99838.47;;;13.92;60.73
32875;BME280;40468;42.128;24.750;2023-10-31T01:45:00;99840.34;;;13.89;60.75
32875;BME280;40468;42.128;24.750;2023-10-31T01:46:30;99837.81;;;13.88;60.76
32875;BME280;40468;42.128;24.750;2023-10-31T01:48:02;99832.66;;;13.86;60.91
32875;BME280;40468;42.128;24.750;2023-10-31T01:49:33;99838.84;;;13.85;60.80
32875;BME280;40468;42.128;24.750;2023-10-31T01:51:06;99833.59;;;13.85;61.00
32875;BME280;40468;42.128;24.750;2023-10-31T01:52:37;99834.44;;;13.86;61.03
32875;BME280;40468;42.128;24.750;2023-10-31T01:54:09;99825.81;;;13.84;60.84
32875;BME280;40468;42.128;24.750;2023-10-31T01:55:40;99829.38;;;13.83;61.03
32875;BME280;40468;42.128;24.750;2023-10-31T01:57:12;99830.34;;;13.82;60.85
32875;BME280;40468;42.128;24.750;2023-10-31T01:58:43;99833.78;;;13.82;60.89
32875;BME280;40468;42.128;24.750;2023-10-31T02:00:16;99840.88;;;13.80;60.76
32875;BME280;40468;42.128;24.750;2023-10-31T02:01:47;99833.13;;;13.79;60.76
32875;BME280;40468;42.128;24.750;2023-10-31T02:03:19;99829.75;;;13.77;60.85
32875;BME280;40468;42.128;24.750;2023-10-31T02:04:50;99827.19;;;13.75;60.84
32875;BME280;40468;42.128;24.750;2023-10-31T02:06:23;99831.72;;;13.73;60.92
32875;BME280;40468;42.128;24.750;2023-10-31T02:07:54;99826.53;;;13.72;60.80
32875;BME280;40468;42.128;24.750;2023-10-31T02:09:25;99824.94;;;13.69;60.89
32875;BME280;40468;42.128;24.750;2023-10-31T02:10:59;99826.00;;;13.67;60.94
32875;BME280;40468;42.128;24.750;2023-10-31T02:12:33;99825.47;;;13.60;61.26
32875;BME280;40468;42.128;24.750;2023-10-31T02:14:05;99825.09;;;13.52;61.43
32875;BME280;40468;42.128;24.750;2023-10-31T02:15:36;99821.78;;;13.48;61.41
32875;BME280;40468;42.128;24.750;2023-10-31T02:17:07;99824.56;;;13.45;61.62
32875;BME280;40468;42.128;24.750;2023-10-31T02:18:39;99821.97;;;13.45;61.77
32875;BME280;40468;42.128;24.750;2023-10-31T02:20:11;99821.97;;;13.45;61.52
32875;BME280;40468;42.128;24.750;2023-10-31T02:21:43;99821.06;;;13.46;61.64
32875;BME280;40468;42.128;24.750;2023-10-31T02:23:15;99821.13;;;13.45;61.90
32875;BME280;40468;42.128;24.750;2023-10-31T02:24:45;99827.28;;;13.43;61.85
32875;BME280;40468;42.128;24.750;2023-10-31T02:26:17;99824.75;;;13.42;62.16
32875;BME280;40468;42.128;24.750;2023-10-31T02:27:47;99824.09;;;13.38;62.12
32875;BME280;40468;42.128;24.750;2023-10-31T02:29:19;99820.03;;;13.33;62.51
32875;BME280;40468;42.128;24.750;2023-10-31T02:30:49;99820.22;;;13.30;62.39
32875;BME280;40468;42.128;24.750;2023-10-31T02:32:21;99824.59;;;13.29;62.69
32875;BME280;40468;42.128;24.750;2023-10-31T02:33:51;99826.44;;;13.27;62.56
32875;BME280;40468;42.128;24.750;2023-10-31T02:35:23;99830.84;;;13.27;62.61
32875;BME280;40468;42.128;24.750;2023-10-31T02:36:55;99830.84;;;13.27;62.34
32875;BME280;40468;42.128;24.750;2023-10-31T02:38:27;99826.44;;;13.27;62.50
32875;BME280;40468;42.128;24.750;2023-10-31T02:39:58;99829.16;;;13.26;62.47
32875;BME280;40468;42.128;24.750;2023-10-31T02:41:29;99830.97;;;13.24;62.50
32875;BME280;40468;42.128;24.750;2023-10-31T02:43:01;99832.75;;;13.23;62.79
32875;BME280;40468;42.128;24.750;2023-10-31T02:44:32;99837.16;;;13.23;62.79
32875;BME280;40468;42.128;24.750;2023-10-31T02:46:04;99834.59;;;13.21;62.81
32875;BME280;40468;42.128;24.750;2023-10-31T02:47:34;99841.63;;;13.20;62.68
32875;BME280;40468;42.128;24.750;2023-10-31T02:49:06;99834.78;;;13.18;63.06
32875;BME280;40468;42.128;24.750;2023-10-31T02:50:36;99833.16;;;13.15;63.16
32875;BME280;40468;42.128;24.750;2023-10-31T02:52:10;99841.13;;;13.14;62.93
32875;BME280;40468;42.128;24.750;2023-10-31T02:53:41;99826.50;;;13.10;63.42
32875;BME280;40468;42.128;24.750;2023-10-31T02:55:12;99830.22;;;13.06;63.70
32875;BME280;40468;42.128;24.750;2023-10-31T02:56:43;99832.25;;;13.01;63.90
32875;BME280;40468;42.128;24.750;2023-10-31T02:58:15;99839.34;;;12.98;63.66
32875;BME280;40468;42.128;24.750;2023-10-31T02:59:47;99832.34;;;12.99;63.85
32875;BME280;40468;42.128;24.750;2023-10-31T03:01:19;99835.03;;;12.97;63.70
32875;BME280;40468;42.128;24.750;2023-10-31T03:02:50;99834.13;;;12.98;63.78
32875;BME280;40468;42.128;24.750;2023-10-31T03:04:21;99830.81;;;12.95;64.00
32875;BME280;40468;42.128;24.750;2023-10-31T03:05:52;99830.06;;;12.93;64.06
32875;BME280;40468;42.128;24.750;2023-10-31T03:07:25;99826.69;;;12.91;64.04
32875;BME280;40468;42.128;24.750;2023-10-31T03:08:55;99833.69;;;12.90;64.25
32875;BME280;40468;42.128;24.750;2023-10-31T03:10:27;99829.38;;;12.89;64.18
32875;BME280;40468;42.128;24.750;2023-10-31T03:11:57;99829.53;;;12.86;64.00
32875;BME280;40468;42.128;24.750;2023-10-31T03:13:29;99821.84;;;12.83;64.21
32875;BME280;40468;42.128;24.750;2023-10-31T03:14:59;99829.88;;;12.80;64.47
32875;BME280;40468;42.128;24.750;2023-10-31T03:16:31;99830.03;;;12.77;64.57
32875;BME280;40468;42.128;24.750;2023-10-31T03:18:02;99819.69;;;12.75;64.54
32875;BME280;40468;42.128;24.750;2023-10-31T03:19:34;99826.75;;;12.73;64.87
32875;BME280;40468;42.128;24.750;2023-10-31T03:21:04;99828.59;;;12.71;64.63
32875;BME280;40468;42.128;24.750;2023-10-31T03:22:38;99826.91;;;12.70;64.95
32875;BME280;40468;42.128;24.750;2023-10-31T03:24:09;99825.22;;;12.69;65.09
32875;BME280;40468;42.128;24.750;2023-10-31T03:25:40;99828.91;;;12.65;65.23
32875;BME280;40468;42.128;24.750;2023-10-31T03:27:11;99830.03;;;12.61;65.49
32875;BME280;40468;42.128;24.750;2023-10-31T03:28:42;99825.03;;;12.57;65.58
32875;BME280;40468;42.128;24.750;2023-10-31T03:30:14;99831.19;;;12.56;65.71
32875;BME280;40468;42.128;24.750;2023-10-31T03:31:44;99827.81;;;12.53;65.73
32875;BME280;40468;42.128;24.750;2023-10-31T03:33:16;99827.13;;;12.50;65.76
32875;BME280;40468;42.128;24.750;2023-10-31T03:34:46;99828.13;;;12.47;65.79
32875;BME280;40468;42.128;24.750;2023-10-31T03:36:18;99826.44;;;12.46;65.75
32875;BME280;40468;42.128;24.750;2023-10-31T03:37:50;99824.94;;;12.42;65.95
32875;BME280;40468;42.128;24.750;2023-10-31T03:39:22;99825.84;;;12.41;65.98
32875;BME280;40468;42.128;24.750;2023-10-31T03:40:52;99821.63;;;12.39;66.07
32875;BME280;40468;42.128;24.750;2023-10-31T03:42:24;99823.47;;;12.37;65.90
32875;BME280;40468;42.128;24.750;2023-10-31T03:43:54;99828.59;;;12.38;65.75
32875;BME280;40468;42.128;24.750;2023-10-31T03:45:26;99828.72;;;12.37;66.06
32875;BME280;40468;42.128;24.750;2023-10-31T03:46:56;99823.72;;;12.32;66.60
32875;BME280;40468;42.128;24.750;2023-10-31T03:48:28;99824.97;;;12.25;67.13
32875;BME280;40468;42.128;24.750;2023-10-31T03:49:58;99829.56;;;12.20;67.17
32875;BME280;40468;42.128;24.750;2023-10-31T03:51:30;99834.16;;;12.15;67.40
32875;BME280;40468;42.128;24.750;2023-10-31T03:53:02;99834.34;;;12.12;67.48
32875;BME280;40468;42.128;24.750;2023-10-31T03:54:33;99834.34;;;12.12;67.28
32875;BME280;40468;42.128;24.750;2023-10-31T03:56:04;99831.72;;;12.12;67.37
32875;BME280;40468;42.128;24.750;2023-10-31T03:57:36;99828.28;;;12.11;67.24
32875;BME280;40468;42.128;24.750;2023-10-31T03:59:06;99835.25;;;12.11;67.11
32875;BME280;40468;42.128;24.750;2023-10-31T04:00:38;99833.56;;;12.10;67.10
32875;BME280;40468;42.128;24.750;2023-10-31T04:02:09;99835.41;;;12.07;67.36
32875;BME280;40468;42.128;24.750;2023-10-31T04:03:40;99831.25;;;12.03;67.74
32875;BME280;40468;42.128;24.750;2023-10-31T04:05:11;99834.78;;;12.02;67.26
32875;BME280;40468;42.128;24.750;2023-10-31T04:06:43;99832.19;;;12.02;67.35
32875;BME280;40468;42.128;24.750;2023-10-31T04:08:15;99829.56;;;12.02;67.35
32875;BME280;40468;42.128;24.750;2023-10-31T04:09:46;99830.50;;;12.01;67.44
32875;BME280;40468;42.128;24.750;2023-10-31T04:11:17;99832.28;;;12.01;67.22
32875;BME280;40468;42.128;24.750;2023-10-31T04:12:48;99835.63;;;12.03;67.10
32875;BME280;40468;42.128;24.750;2023-10-31T04:14:20;99833.88;;;12.03;67.31
32875;BME280;40468;42.128;24.750;2023-10-31T04:15:52;99831.41;;;12.00;67.40
32875;BME280;40468;42.128;24.750;2023-10-31T04:17:22;99827.13;;;11.99;67.84
32875;BME280;40468;42.128;24.750;2023-10-31T04:18:54;99834.19;;;11.97;67.68
32875;BME280;40468;42.128;24.750;2023-10-31T04:20:24;99835.94;;;11.97;67.75
32875;BME280;40468;42.128;24.750;2023-10-31T04:21:56;99834.28;;;11.96;67.69
32875;BME280;40468;42.128;24.750;2023-10-31T04:23:28;99835.13;;;11.96;67.65
32875;BME280;40468;42.128;24.750;2023-10-31T04:24:59;99825.50;;;11.97;67.49
32875;BME280;40468;42.128;24.750;2023-10-31T04:26:30;99834.28;;;11.96;67.73
32875;BME280;40468;42.128;24.750;2023-10-31T04:28:01;99831.66;;;11.96;67.69
32875;BME280;40468;42.128;24.750;2023-10-31T04:29:32;99835.13;;;11.96;67.52
32875;BME280;40468;42.128;24.750;2023-10-31T04:31:04;99823.75;;;11.97;67.39
32875;BME280;40468;42.128;24.750;2023-10-31T04:32:34;99825.50;;;11.97;67.38
32875;BME280;40468;42.128;24.750;2023-10-31T04:34:06;99828.06;;;11.98;67.00
32875;BME280;40468;42.128;24.750;2023-10-31T04:35:36;99832.34;;;11.99;67.39
32875;BME280;40468;42.128;24.750;2023-10-31T04:37:08;99826.28;;;11.99;67.20
32875;BME280;40468;42.128;24.750;2023-10-31T04:38:41;99826.28;;;11.99;66.97
32875;BME280;40468;42.128;24.750;2023-10-31T04:40:12;99825.44;;;11.98;66.93
32875;BME280;40468;42.128;24.750;2023-10-31T04:41:44;99828.06;;;11.98;66.90
32875;BME280;40468;42.128;24.750;2023-10-31T04:43:14;99826.34;;;11.97;67.07
32875;BME280;40468;42.128;24.750;2023-10-31T04:44:46;99818.53;;;11.97;66.92
32875;BME280;40468;42.128;24.750;2023-10-31T04:46:16;99813.31;;;11.97;67.07
32875;BME280;40468;42.128;24.750;2023-10-31T04:47:48;99819.44;;;11.96;66.88
32875;BME280;40468;42.128;24.750;2023-10-31T04:49:19;99810.78;;;11.96;66.85
32875;BME280;40468;42.128;24.750;2023-10-31T04:50:50;99809.84;;;11.97;66.92
32875;BME280;40468;42.128;24.750;2023-10-31T04:52:22;99818.63;;;11.96;67.02
32875;BME280;40468;42.128;24.750;2023-10-31T04:53:57;99812.56;;;11.95;66.87
32875;BME280;40468;42.128;24.750;2023-10-31T04:55:28;99816.06;;;11.94;66.76
32875;BME280;40468;42.128;24.750;2023-10-31T04:56:59;99812.56;;;11.95;66.57
32875;BME280;40468;42.128;24.750;2023-10-31T04:58:31;99815.91;;;11.97;66.67
32875;BME280;40468;42.128;24.750;2023-10-31T05:00:01;99809.94;;;11.95;67.05
32875;BME280;40468;42.128;24.750;2023-10-31T05:01:36;99821.28;;;11.94;67.20
32875;BME280;40468;42.128;24.750;2023-10-31T05:03:07;99818.78;;;11.93;66.89
32875;BME280;40468;42.128;24.750;2023-10-31T05:04:38;99720.00;;;11.33;66.90
32875;BME280;40468;42.128;24.750;2023-10-31T05:06:10;99811.78;;;11.93;66.85
32875;BME280;40468;42.128;24.750;2023-10-31T05:07:41;99807.41;;;11.94;67.07
32875;BME280;40468;42.128;24.750;2023-10-31T05:09:14;99805.63;;;11.94;66.95
32875;BME280;40468;42.128;24.750;2023-10-31T05:10:45;99806.47;;;11.95;66.96
32875;BME280;40468;42.128;24.750;2023-10-31T05:12:17;99800.34;;;11.96;66.70
32875;BME280;40468;42.128;24.750;2023-10-31T05:13:48;99805.63;;;11.94;66.96
32875;BME280;40468;42.128;24.750;2023-10-31T05:15:19;99816.22;;;11.91;66.81
32875;BME280;40468;42.128;24.750;2023-10-31T05:16:51;99807.66;;;11.89;66.85
32875;BME280;40468;42.128;24.750;2023-10-31T05:18:21;99800.81;;;11.87;67.16
32875;BME280;40468;42.128;24.750;2023-10-31T05:19:54;99800.88;;;11.85;67.18
32875;BME280;40468;42.128;24.750;2023-10-31T05:21:24;99793.13;;;11.83;66.89
32875;BME280;40468;42.128;24.750;2023-10-31T05:22:57;99791.34;;;11.84;67.42
32875;BME280;40468;42.128;24.750;2023-10-31T05:24:30;99802.59;;;11.86;67.51
32875;BME280;40468;42.128;24.750;2023-10-31T05:26:04;99806.88;;;11.87;67.37
32875;BME280;40468;42.128;24.750;2023-10-31T05:27:36;99802.44;;;11.89;67.51
32875;BME280;40468;42.128;24.750;2023-10-31T05:29:06;99803.19;;;11.91;67.48
32875;BME280;40468;42.128;24.750;2023-10-31T05:30:38;99811.69;;;11.95;67.47
32875;BME280;40468;42.128;24.750;2023-10-31T05:32:08;99810.69;;;11.97;67.59
32875;BME280;40468;42.128;24.750;2023-10-31T05:33:40;99820.91;;;12.02;67.53
32875;BME280;40468;42.128;24.750;2023-10-31T05:35:11;99827.59;;;12.07;67.66
32875;BME280;40468;42.128;24.750;2023-10-31T05:36:42;99823.88;;;12.12;67.45
32875;BME280;40468;42.128;24.750;2023-10-31T05:38:13;99821.13;;;12.15;67.40
32875;BME280;40468;42.128;24.750;2023-10-31T05:39:46;99831.19;;;12.22;67.53
32875;BME280;40468;42.128;24.750;2023-10-31T05:41:16;99838.59;;;12.30;67.32
32875;BME280;40468;42.128;24.750;2023-10-31T05:42:48;99840.91;;;12.36;67.06
32875;BME280;40468;42.128;24.750;2023-10-31T05:44:19;99837.91;;;12.44;67.23
32875;BME280;40468;42.128;24.750;2023-10-31T05:45:50;99838.19;;;12.55;66.92
32875;BME280;40468;42.128;24.750;2023-10-31T05:47:21;99842.91;;;12.64;66.80
32875;BME280;40468;42.128;24.750;2023-10-31T05:48:52;99852.03;;;12.73;66.33
32875;BME280;40468;42.128;24.750;2023-10-31T05:50:23;99850.94;;;12.77;66.38
32875;BME280;40468;42.128;24.750;2023-10-31T05:51:54;99845.47;;;12.82;66.50
32875;BME280;40468;42.128;24.750;2023-10-31T05:53:25;99853.22;;;12.83;66.34
32875;BME280;40468;42.128;24.750;2023-10-31T05:54:57;99854.94;;;12.84;66.54
32875;BME280;40468;42.128;24.750;2023-10-31T05:56:29;99851.22;;;12.88;66.51
32875;BME280;40468;42.128;24.750;2023-10-31T05:58:00;99845.75;;;12.93;66.52
32875;BME280;40468;42.128;24.750;2023-10-31T05:59:31;99860.94;;;13.02;66.50
32875;BME280;40468;42.128;24.750;2023-10-31T06:01:02;99860.50;;;13.10;66.25
32875;BME280;40468;42.128;24.750;2023-10-31T06:02:34;99859.16;;;13.18;66.23
32875;BME280;40468;42.128;24.750;2023-10-31T06:04:05;99855.31;;;13.26;66.08
32875;BME280;40468;42.128;24.750;2023-10-31T06:05:36;99863.50;;;13.35;65.93
32875;BME280;40468;42.128;24.750;2023-10-31T06:07:07;99866.44;;;13.45;65.86
32875;BME280;40468;42.128;24.750;2023-10-31T06:08:38;99867.69;;;13.54;65.50
32875;BME280;40468;42.128;24.750;2023-10-31T06:10:10;99860.91;;;13.65;65.55
32875;BME280;40468;42.128;24.750;2023-10-31T06:11:42;99871.63;;;13.77;65.18
32875;BME280;40468;42.128;24.750;2023-10-31T06:13:12;99864.84;;;13.88;65.13
32875;BME280;40468;42.128;24.750;2023-10-31T06:14:44;99860.75;;;13.99;64.99
32875;BME280;40468;42.128;24.750;2023-10-31T06:16:15;99864.16;;;14.15;64.36
32875;BME280;40468;42.128;24.750;2023-10-31T06:17:46;99860.63;;;14.30;64.30
32875;BME280;40468;42.128;24.750;2023-10-31T06:19:17;99864.59;;;14.52;63.87
32875;BME280;40468;42.128;24.750;2023-10-31T06:20:49;99853.31;;;14.80;63.27
32875;BME280;40468;42.128;24.750;2023-10-31T06:22:19;99847.28;;;15.07;62.57
32875;BME280;40468;42.128;24.750;2023-10-31T06:23:51;99853.50;;;15.33;61.76
32875;BME280;40468;42.128;24.750;2023-10-31T06:25:23;99849.28;;;15.57;60.88
32875;BME280;40468;42.128;24.750;2023-10-31T06:26:54;99850.44;;;15.80;60.26
32875;BME280;40468;42.128;24.750;2023-10-31T06:28:25;99853.09;;;16.06;59.63
32875;BME280;40468;42.128;24.750;2023-10-31T06:29:56;99849.66;;;16.31;58.81
32875;BME280;40468;42.128;24.750;2023-10-31T06:31:27;99861.88;;;16.57;58.10
32875;BME280;40468;42.128;24.750;2023-10-31T06:32:59;99862.28;;;16.77;57.63
32875;BME280;40468;42.128;24.750;2023-10-31T06:34:29;99854.69;;;16.98;57.06
32875;BME280;40468;42.128;24.750;2023-10-31T06:36:01;99852.81;;;17.24;56.38
32875;BME280;40468;42.128;24.750;2023-10-31T06:37:32;99856.03;;;17.40;55.59
32875;BME280;40468;42.128;24.750;2023-10-31T06:39:03;99858.09;;;17.48;55.05
32875;BME280;40468;42.128;24.750;2023-10-31T06:40:36;99863.25;;;17.49;54.55
32875;BME280;40468;42.128;24.750;2023-10-31T06:42:07;99867.47;;;17.52;54.49
32875;BME280;40468;42.128;24.750;2023-10-31T06:43:38;99866.84;;;17.48;54.48
32875;BME280;40468;42.128;24.750;2023-10-31T06:45:09;99864.47;;;17.33;54.98
32875;BME280;40468;42.128;24.750;2023-10-31T06:46:41;99856.72;;;17.18;55.35
32875;BME280;40468;42.128;24.750;2023-10-31T06:48:11;99867.03;;;17.21;56.00
32875;BME280;40468;42.128;24.750;2023-10-31T06:49:43;99860.91;;;17.34;55.91
32875;BME280;40468;42.128;24.750;2023-10-31T06:51:13;99868.22;;;17.65;55.50
32875;BME280;40468;42.128;24.750;2023-10-31T06:52:45;99865.34;;;18.16;54.22
32875;BME280;40468;42.128;24.750;2023-10-31T06:54:15;99865.53;;;18.71;52.76
32875;BME280;40468;42.128;24.750;2023-10-31T06:55:48;99865.66;;;19.26;51.08
32875;BME280;40468;42.128;24.750;2023-10-31T06:57:19;99862.09;;;19.91;50.09
32875;BME280;40468;42.128;24.750;2023-10-31T06:58:50;99850.91;;;20.72;48.67
32875;BME280;40468;42.128;24.750;2023-10-31T07:00:21;99849.56;;;21.47;47.33
32875;BME280;40468;42.128;24.750;2023-10-31T07:01:53;99853.47;;;22.30;46.35
32875;BME280;40468;42.128;24.750;2023-10-31T07:03:23;99852.00;;;23.20;44.85
32875;BME280;40468;42.128;24.750;2023-10-31T07:04:55;99842.19;;;24.02;43.66
32875;BME280;40468;42.128;24.750;2023-10-31T07:06:26;99839.94;;;24.67;42.46
32875;BME280;40468;42.128;24.750;2023-10-31T07:07:57;99834.66;;;25.18;41.33
32875;BME280;40468;42.128;24.750;2023-10-31T07:09:28;99835.41;;;25.69;41.00
32875;BME280;40468;42.128;24.750;2023-10-31T07:11:00;99833.25;;;26.05;39.77
32875;BME280;40468;42.128;24.750;2023-10-31T07:12:32;99834.41;;;26.36;39.70
32875;BME280;40468;42.128;24.750;2023-10-31T07:14:02;99824.97;;;26.64;39.49
32875;BME280;40468;42.128;24.750;2023-10-31T07:15:34;99824.09;;;26.80;39.24
32875;BME280;40468;42.128;24.750;2023-10-31T07:17:09;99826.72;;;26.88;39.54
32875;BME280;40468;42.128;24.750;2023-10-31T07:18:40;99829.19;;;26.98;39.59
32875;BME280;40468;42.128;24.750;2023-10-31T07:20:11;99828.69;;;26.94;39.27
32875;BME280;40468;42.128;24.750;2023-10-31T07:21:42;99831.19;;;26.96;39.35
32875;BME280;40468;42.128;24.750;2023-10-31T07:23:13;99832.94;;;26.81;38.28
32875;BME280;40468;42.128;24.750;2023-10-31T07:24:45;99839.16;;;26.65;38.28
32875;BME280;40468;42.128;24.750;2023-10-31T07:26:16;99822.06;;;26.82;38.28
32875;BME280;40468;42.128;24.750;2023-10-31T07:27:48;99828.38;;;27.29;38.46
32875;BME280;40468;42.128;24.750;2023-10-31T07:29:19;99824.09;;;27.65;37.40
32875;BME280;40468;42.128;24.750;2023-10-31T07:30:50;99826.44;;;28.06;36.86
32875;BME280;40468;42.128;24.750;2023-10-31T07:32:22;99820.34;;;28.50;36.10
32875;BME280;40468;42.128;24.750;2023-10-31T07:33:52;99815.75;;;28.95;35.62
32875;BME280;40468;42.128;24.750;2023-10-31T07:35:24;99809.34;;;29.47;34.79
32875;BME280;40468;42.128;24.750;2023-10-31T07:36:55;99823.13;;;29.87;34.41
32875;BME280;40468;42.128;24.750;2023-10-31T07:38:26;99823.16;;;30.15;32.32
32875;BME280;40468;42.128;24.750;2023-10-31T07:39:58;99820.41;;;30.37;32.72
32875;BME280;40468;42.128;24.750;2023-10-31T07:41:30;99816.47;;;30.68;32.83
32875;BME280;40468;42.128;24.750;2023-10-31T07:43:01;99813.16;;;30.72;32.68
32875;BME280;40468;42.128;24.750;2023-10-31T07:44:32;99820.31;;;30.93;33.02
32875;BME280;40468;42.128;24.750;2023-10-31T07:46:04;99811.47;;;31.13;32.20
32875;BME280;40468;42.128;24.750;2023-10-31T07:47:34;99815.88;;;31.27;32.26
32875;BME280;40468;42.128;24.750;2023-10-31T07:49:06;99809.09;;;31.44;31.72
32875;BME280;40468;42.128;24.750;2023-10-31T07:50:36;99805.16;;;31.67;32.19
32875;BME280;40468;42.128;24.750;2023-10-31T07:52:08;99792.38;;;31.95;31.93
32875;BME280;40468;42.128;24.750;2023-10-31T07:53:39;99797.53;;;31.97;30.85
32875;BME280;40468;42.128;24.750;2023-10-31T07:55:11;99791.31;;;31.90;30.97
32875;BME280;40468;42.128;24.750;2023-10-31T07:56:44;99786.75;;;31.90;31.09
32875;BME280;40468;42.128;24.750;2023-10-31T07:58:15;99785.72;;;32.05;30.89